Time;durP1;ratioP1;P1;durP2;ratioP2;P2;SDS_P1;SDS_P2;PMS_P1;PMS_P2;Temp;Humidity;BMP_temperature;BMP_pressure;BME280_temperature;BME280_humidity;BME280_pressure;Samples;Min_cycle;Max_cycle;Signal;HPM_P1;HPM_P2
2023/09/18 00:00:50;;;;;;;1.08;1.08;;;16.80;99.90;;;;;;5155122;27;20051;-64
2023/09/18 00:03:18;;;;;;;0.63;0.30;;;16.50;99.90;;;;;;5154378;27;20154;-63
2023/09/18 00:05:45;;;;;;;0.50;0.50;;;15.90;99.90;;;;;;5154906;27;20043;-64
2023/09/18 00:08:11;;;;;;;0.77;0.77;;;17.30;99.90;;;;;;5155079;27;20051;-64
2023/09/18 00:10:37;;;;;;;1.15;1.05;;;16.90;99.90;;;;;;5154845;27;20103;-64
2023/09/18 00:13:03;;;;;;;0.70;0.70;;;15.80;99.90;;;;;;5155062;27;20085;-63
2023/09/18 00:15:28;;;;;;;0.68;0.68;;;17.10;99.90;;;;;;5155133;27;20085;-63
2023/09/18 00:17:55;;;;;;;0.55;0.55;;;16.10;99.90;;;;;;5155342;27;20070;-63
2023/09/18 00:20:26;;;;;;;1.02;0.77;;;16.10;99.90;;;;;;5155167;27;20054;-64
2023/09/18 00:22:53;;;;;;;0.90;0.73;;;16.00;99.90;;;;;;5155018;27;20042;-64
2023/09/18 00:25:19;;;;;;;1.05;0.95;;;16.50;99.90;;;;;;5153944;27;20047;-63
2023/09/18 00:27:45;;;;;;;1.00;0.80;;;16.10;99.90;;;;;;5154882;27;20099;-63
2023/09/18 00:30:11;;;;;;;3.95;1.23;;;16.20;99.90;;;;;;5154810;27;20050;-64
2023/09/18 00:32:37;;;;;;;0.80;0.80;;;16.70;99.90;;;;;;5154776;27;20046;-64
2023/09/18 00:35:03;;;;;;;0.73;0.60;;;15.70;99.90;;;;;;5154751;27;20043;-63
2023/09/18 00:37:29;;;;;;;4.03;1.30;;;16.90;99.90;;;;;;5154712;27;20129;-64
2023/09/18 00:39:55;;;;;;;1.48;0.70;;;16.20;99.90;;;;;;5154618;27;20156;-63
2023/09/18 00:42:22;;;;;;;;;;;16.80;99.90;;;;;;5154967;27;20049;-63
2023/09/18 00:44:50;;;;;;;0.82;0.82;;;16.90;99.90;;;;;;5154563;27;19919;-63
2023/09/18 00:47:16;;;;;;;0.88;0.88;;;16.00;99.90;;;;;;5154475;27;20054;-63
2023/09/18 00:49:45;;;;;;;1.40;1.27;;;16.20;99.90;;;;;;5154448;27;20043;-64
2023/09/18 00:52:11;;;;;;;1.00;0.90;;;16.70;99.90;;;;;;5154359;27;20489;-64
2023/09/18 00:54:40;;;;;;;0.70;0.70;;;16.00;99.90;;;;;;5154378;27;20047;-64
2023/09/18 00:57:06;;;;;;;3.25;1.42;;;16.90;99.90;;;;;;5154275;27;20046;-63
2023/09/18 00:59:33;;;;;;;0.52;0.52;;;15.90;99.90;;;;;;5154285;27;20039;-63
2023/09/18 01:01:59;;;;;;;2.53;2.20;;;16.00;99.90;;;;;;5153973;27;20049;-63
2023/09/18 01:04:26;;;;;;;1.02;0.80;;;16.80;99.90;;;;;;5154289;27;20399;-63
2023/09/18 01:06:52;;;;;;;2.00;0.80;;;15.60;99.90;;;;;;5154171;27;20398;-64
2023/09/18 01:09:19;;;;;;;4.78;1.70;;;16.00;99.90;;;;;;5154096;27;20050;-63
2023/09/18 01:12:03;;;;;;;1.10;1.10;;;15.80;99.90;;;;;;5154345;27;20041;-64
2023/09/18 01:14:36;;;;;;;1.00;0.73;;;16.80;99.90;;;;;;5154106;27;20047;-63
2023/09/18 01:17:03;;;;;;;0.57;0.57;;;16.80;99.90;;;;;;5154054;27;20145;-63
2023/09/18 01:19:46;;;;;;;1.55;1.25;;;16.60;99.90;;;;;;5153903;27;20055;-63
2023/09/18 01:22:17;;;;;;;0.40;0.40;;;15.60;99.90;;;;;;5153876;27;20050;-63
2023/09/18 01:24:45;;;;;;;2.10;0.88;;;17.00;99.90;;;;;;5153890;27;20482;-64
2023/09/18 01:27:13;;;;;;;1.00;0.95;;;16.60;99.90;;;;;;5153767;27;20436;-63
2023/09/18 01:29:39;;;;;;;0.35;0.35;;;15.50;99.90;;;;;;5153767;27;20051;-63
2023/09/18 01:32:05;;;;;;;0.63;0.63;;;15.70;99.90;;;;;;5153820;27;20099;-63
2023/09/18 01:34:37;;;;;;;1.00;0.85;;;16.50;99.90;;;;;;5153608;27;20046;-64
2023/09/18 01:37:07;;;;;;;1.50;1.40;;;15.50;99.90;;;;;;5153445;27;20052;-63
2023/09/18 01:39:34;;;;;;;1.60;0.77;;;16.30;99.90;;;;;;5153568;27;20387;-62
2023/09/18 01:42:02;;;;;;;1.02;0.80;;;16.40;99.90;;;;;;5153442;27;20049;-63
2023/09/18 01:44:29;;;;;;;1.48;1.05;;;15.60;99.90;;;;;;5153502;27;20050;-63
2023/09/18 01:46:58;;;;;;;0.80;0.80;;;16.70;99.90;;;;;;5153175;27;20502;-63
2023/09/18 01:49:34;;;;;;;1.67;1.58;;;16.50;99.90;;;;;;5134921;27;20123;-63
2023/09/18 01:52:00;;;;;;;1.38;1.27;;;15.70;99.90;;;;;;5153534;27;20057;-63
2023/09/18 01:54:26;;;;;;;;;;;16.00;99.90;;;;;;5153943;27;20047;-64
2023/09/18 01:56:53;;;;;;;0.68;0.68;;;16.80;99.90;;;;;;5153711;27;20014;-63
2023/09/18 01:59:19;;;;;;;2.00;1.15;;;17.00;99.90;;;;;;5153566;27;20133;-63
2023/09/18 02:01:45;;;;;;;0.98;0.98;;;16.70;99.90;;;;;;5153251;27;20122;-64
2023/09/18 02:04:11;;;;;;;2.13;1.38;;;15.50;99.90;;;;;;5153441;27;20464;-63
2023/09/18 02:06:37;;;;;;;0.88;0.88;;;16.50;99.90;;;;;;5153293;27;20042;-63
2023/09/18 02:09:07;;;;;;;1.27;1.17;;;16.60;99.90;;;;;;5153281;27;20050;-63
2023/09/18 02:11:33;;;;;;;1.13;1.02;;;15.80;99.90;;;;;;5153326;27;20046;-63
2023/09/18 02:13:59;;;;;;;1.13;1.05;;;16.60;99.90;;;;;;5153160;27;20049;-63
2023/09/18 02:16:26;;;;;;;2.80;1.95;;;16.50;99.90;;;;;;5153136;27;20129;-64
2023/09/18 02:18:55;;;;;;;2.13;1.55;;;16.80;99.90;;;;;;5153117;27;20050;-63
2023/09/18 02:21:21;;;;;;;7.63;2.92;;;16.60;99.90;;;;;;5153140;27;20078;-63
2023/09/18 02:23:51;;;;;;;1.42;1.33;;;16.30;99.90;;;;;;5134426;27;20455;-63
2023/09/18 02:26:17;;;;;;;1.77;1.30;;;15.90;99.90;;;;;;5153043;27;20039;-63
2023/09/18 02:28:43;;;;;;;2.53;2.33;;;15.80;99.90;;;;;;5153066;27;20111;-64
2023/09/18 02:31:09;;;;;;;1.48;1.15;;;17.00;99.90;;;;;;5153043;27;20435;-63
2023/09/18 02:33:34;;;;;;;;;;;17.10;99.90;;;;;;5153399;27;20102;-64
2023/09/18 02:36:00;;;;;;;2.00;1.35;;;16.00;99.90;;;;;;5134711;27;19922;-63
2023/09/18 02:38:26;;;;;;;;;;;17.20;99.90;;;;;;5153133;27;20142;-65
2023/09/18 02:40:53;;;;;;;0.70;0.70;;;17.40;99.90;;;;;;5152925;27;20251;-64
2023/09/18 02:43:19;;;;;;;1.83;1.70;;;16.10;99.90;;;;;;5152857;27;20047;-63
2023/09/18 02:45:45;;;;;;;1.38;1.02;;;17.10;99.90;;;;;;5152934;27;20055;-64
2023/09/18 02:48:11;;;;;;;3.10;1.55;;;17.20;99.90;;;;;;5152914;27;20050;-64
2023/09/18 02:50:37;;;;;;;2.88;1.80;;;17.60;99.90;;;;;;5156766;27;20603;-64
2023/09/18 02:53:05;;;;;;;1.42;1.33;;;17.70;99.90;;;;;;5156780;27;20035;-64
2023/09/18 02:55:31;;;;;;;1.15;1.05;;;17.40;99.90;;;;;;5156532;27;20843;-64
2023/09/18 02:57:57;;;;;;;3.10;1.48;;;16.40;99.90;;;;;;5156665;27;20176;-64
2023/09/18 03:00:22;;;;;;;4.18;1.95;;;17.40;99.90;;;;;;5138295;27;20035;-64
2023/09/18 03:02:48;;;;;;;2.50;2.30;;;17.20;99.90;;;;;;5156396;27;20062;-63
2023/09/18 03:05:14;;;;;;;4.00;2.53;;;16.80;99.90;;;;;;5156465;27;20126;-64
2023/09/18 03:07:39;;;;;;;2.58;1.75;;;16.70;99.90;;;;;;5156569;27;20042;-63
2023/09/18 03:10:06;;;;;;;1.75;1.20;;;16.20;99.90;;;;;;5156414;27;20042;-64
2023/09/18 03:12:31;;;;;;;1.05;0.80;;;16.50;99.90;;;;;;5156371;27;20087;-63
2023/09/18 03:14:57;;;;;;;3.92;1.98;;;16.10;99.90;;;;;;5156317;27;20054;-64
2023/09/18 03:17:23;;;;;;;;;;;17.30;99.90;;;;;;5156700;27;20590;-64
2023/09/18 03:19:49;;;;;;;1.88;1.30;;;17.60;99.90;;;;;;5156128;27;19970;-65
2023/09/18 03:22:15;;;;;;;2.63;2.05;;;17.20;99.90;;;;;;5156074;27;20039;-65
2023/09/18 03:24:40;;;;;;;2.05;1.90;;;17.70;99.90;;;;;;5156146;27;20055;-65
2023/09/18 03:27:06;;;;;;;2.28;1.30;;;16.60;99.90;;;;;;5156065;27;20458;-64
2023/09/18 03:29:32;;;;;;;;;;;17.20;99.90;;;;;;5156467;27;20130;-64
2023/09/18 03:31:58;;;;;;;3.33;1.67;;;17.00;99.90;;;;;;5155971;27;19922;-64
2023/09/18 03:34:28;;;;;;;2.40;1.70;;;17.80;99.90;;;;;;5155941;27;20179;-64
2023/09/18 03:36:54;;;;;;;0.98;0.98;;;17.00;99.90;;;;;;5155923;27;20057;-65
2023/09/18 03:39:20;;;;;;;;;;;16.20;99.90;;;;;;5156269;27;20049;-64
2023/09/18 03:41:45;;;;;;;1.30;1.17;;;16.40;99.90;;;;;;5155696;27;19923;-64
2023/09/18 03:44:11;;;;;;;4.20;1.50;;;17.70;99.90;;;;;;5155751;27;20126;-64
2023/09/18 03:46:37;;;;;;;1.83;1.67;;;17.40;99.90;;;;;;5155701;27;20047;-63
2023/09/18 03:49:02;;;;;;;;;;;17.50;99.90;;;;;;5156081;27;20775;-65
2023/09/18 03:51:29;;;;;;;2.00;1.83;;;16.30;99.90;;;;;;5155641;27;19929;-64
2023/09/18 03:53:55;;;;;;;1.70;1.60;;;17.90;99.90;;;;;;5155582;27;20086;-65
2023/09/18 03:56:22;;;;;;;1.98;1.75;;;16.30;99.90;;;;;;5155578;27;20047;-64
2023/09/18 03:58:49;;;;;;;2.35;1.67;;;17.70;99.90;;;;;;5155516;27;20047;-64
2023/09/18 04:01:18;;;;;;;2.35;1.85;;;16.20;99.90;;;;;;5155371;27;20363;-64
2023/09/18 04:03:44;;;;;;;2.40;1.83;;;17.80;99.90;;;;;;5136721;27;20387;-64
2023/09/18 04:06:09;;;;;;;1.75;1.45;;;17.70;99.90;;;;;;5155311;27;20068;-65
2023/09/18 04:08:35;;;;;;;1.67;1.55;;;17.00;99.90;;;;;;5155276;27;20049;-65
2023/09/18 04:11:01;;;;;;;;;;;16.60;99.90;;;;;;5155720;27;20093;-65
2023/09/18 04:13:27;;;;;;;0.88;0.80;;;16.80;99.90;;;;;;5155204;27;20285;-65
2023/09/18 04:15:56;;;;;;;2.30;1.63;;;17.00;99.90;;;;;;5155142;27;20455;-64
2023/09/18 04:18:23;;;;;;;2.00;1.83;;;17.40;99.90;;;;;;5155144;27;20047;-64
2023/09/18 04:20:51;;;;;;;2.33;1.98;;;16.70;99.90;;;;;;5155046;27;20042;-64
2023/09/18 04:23:22;;;;;;;1.40;1.30;;;17.40;99.90;;;;;;5154985;27;20049;-64
2023/09/18 04:25:49;;;;;;;2.67;1.10;;;16.90;99.90;;;;;;5154722;27;20498;-64
2023/09/18 04:28:17;;;;;;;3.03;1.95;;;17.00;99.90;;;;;;5154973;27;20048;-66
2023/09/18 04:30:43;;;;;;;1.52;1.35;;;17.80;99.90;;;;;;5154987;27;20103;-64
2023/09/18 04:33:08;;;;;;;1.73;1.30;;;17.80;99.90;;;;;;5154915;27;20038;-65
2023/09/18 04:35:34;;;;;;;;;;;16.60;99.90;;;;;;5155549;27;20129;-64
2023/09/18 04:38:00;;;;;;;1.50;1.15;;;17.00;99.90;;;;;;5154982;27;19923;-63
2023/09/18 04:40:32;;;;;;;;;;;16.40;99.90;;;;;;5155257;27;20245;-64
2023/09/18 04:42:58;;;;;;;3.25;1.20;;;16.30;99.90;;;;;;5154618;27;19966;-64
2023/09/18 04:45:25;;;;;;;2.53;1.25;;;16.70;99.90;;;;;;5136198;27;20043;-65
2023/09/18 04:47:51;;;;;;;1.60;1.50;;;16.60;99.90;;;;;;5154588;27;20057;-64
2023/09/18 04:50:17;;;;;;;1.27;1.10;;;17.50;99.90;;;;;;5154488;27;20058;-63
2023/09/18 04:52:43;;;;;;;1.60;1.50;;;17.70;99.90;;;;;;5154584;27;20039;-64
2023/09/18 04:55:10;;;;;;;1.33;1.23;;;17.70;99.90;;;;;;5154520;27;20090;-64
2023/09/18 04:57:36;;;;;;;0.85;0.85;;;16.60;99.90;;;;;;5154473;27;20088;-64
2023/09/18 05:00:02;;;;;;;2.75;2.17;;;17.70;99.90;;;;;;5154627;27;20050;-65
2023/09/18 05:02:30;;;;;;;3.42;1.60;;;17.20;99.90;;;;;;5154072;27;20059;-64
2023/09/18 05:04:56;;;;;;;1.52;1.42;;;16.70;99.90;;;;;;5154306;27;20475;-65
2023/09/18 05:07:22;;;;;;;1.60;1.50;;;18.20;99.90;;;;;;5154222;27;20050;-63
2023/09/18 05:09:47;;;;;;;1.45;1.35;;;16.70;99.90;;;;;;5154156;27;20049;-65
2023/09/18 05:12:15;;;;;;;1.52;1.42;;;17.80;99.90;;;;;;5135284;27;20051;-64
2023/09/18 05:14:42;;;;;;;1.50;1.40;;;17.60;99.90;;;;;;5154093;27;20061;-64
2023/09/18 05:17:15;;;;;;;1.85;1.52;;;17.50;99.90;;;;;;5154015;27;20490;-64
2023/09/18 05:19:41;;;;;;;0.77;0.77;;;17.40;99.90;;;;;;5153972;27;20493;-64
2023/09/18 05:22:10;;;;;;;1.65;1.42;;;16.80;99.90;;;;;;5154143;27;20066;-63
2023/09/18 05:24:37;;;;;;;0.82;0.75;;;17.20;99.90;;;;;;5154139;27;20054;-63
2023/09/18 05:27:03;;;;;;;0.40;0.40;;;16.70;99.90;;;;;;5153897;27;20086;-63
2023/09/18 05:29:28;;;;;;;2.00;1.35;;;17.90;99.90;;;;;;5153825;27;20093;-63
2023/09/18 05:31:54;;;;;;;;;;;16.70;99.90;;;;;;5154147;27;20039;-64
2023/09/18 05:34:20;;;;;;;2.33;2.13;;;16.50;99.90;;;;;;5153706;27;20459;-64
2023/09/18 05:36:45;;;;;;;1.20;1.10;;;17.30;99.90;;;;;;5153616;27;20196;-64
2023/09/18 05:39:12;;;;;;;2.50;1.38;;;17.20;99.90;;;;;;5153410;27;20043;-64
2023/09/18 05:41:41;;;;;;;2.45;1.10;;;17.90;99.90;;;;;;5153481;27;20042;-63
2023/09/18 05:44:07;;;;;;;1.50;1.40;;;16.90;99.90;;;;;;5153499;27;20050;-64
2023/09/18 05:46:36;;;;;;;0.95;0.82;;;17.80;99.90;;;;;;5140476;27;20409;-67
2023/09/18 05:49:02;;;;;;;1.25;1.02;;;17.80;99.90;;;;;;5130830;27;20107;-64
2023/09/18 05:51:30;;;;;;;0.95;0.95;;;17.80;99.90;;;;;;5145745;27;20058;-66
2023/09/18 05:53:55;;;;;;;1.17;1.08;;;17.80;99.90;;;;;;5132381;27;20043;-64
2023/09/18 05:56:21;;;;;;;1.38;1.27;;;16.70;99.90;;;;;;5152780;27;20091;-63
2023/09/18 05:58:47;;;;;;;1.73;1.58;;;17.10;99.90;;;;;;5152699;27;20414;-64
2023/09/18 06:01:12;;;;;;;1.95;1.48;;;18.00;99.90;;;;;;5151898;27;20082;-64
2023/09/18 06:03:38;;;;;;;0.63;0.63;;;17.10;99.90;;;;;;5133488;27;20051;-65
2023/09/18 06:06:05;;;;;;;0.98;0.60;;;18.30;99.90;;;;;;5152684;27;20059;-64
2023/09/18 06:08:31;;;;;;;1.80;1.20;;;17.80;99.90;;;;;;5133695;27;20042;-63
2023/09/18 06:10:59;;;;;;;1.30;1.13;;;16.90;99.90;;;;;;5131933;28;20094;-63
2023/09/18 06:13:27;;;;;;;0.98;0.95;;;18.10;99.90;;;;;;5113685;28;20083;-63
2023/09/18 06:15:54;;;;;;;0.80;0.80;;;17.80;99.90;;;;;;5146527;27;20093;-64
2023/09/18 06:18:20;;;;;;;0.90;0.90;;;17.80;99.90;;;;;;5152934;27;20045;-63
2023/09/18 06:20:49;;;;;;;0.30;0.30;;;17.80;99.90;;;;;;5152835;27;20053;-63
2023/09/18 06:23:15;;;;;;;0.52;0.52;;;17.30;99.90;;;;;;5152376;27;20111;-62
2023/09/18 06:25:41;;;;;;;1.10;1.00;;;17.20;99.90;;;;;;5157026;27;20046;-62
2023/09/18 06:28:07;;;;;;;4.78;1.60;;;18.10;99.90;;;;;;5157034;27;20046;-62
2023/09/18 06:30:34;;;;;;;0.90;0.90;;;18.20;99.90;;;;;;5156020;27;20043;-62
2023/09/18 06:33:03;;;;;;;1.35;1.20;;;17.40;99.90;;;;;;5156962;27;20051;-62
2023/09/18 06:35:30;;;;;;;0.43;0.43;;;17.60;99.90;;;;;;5156822;27;20092;-62
2023/09/18 06:37:58;;;;;;;0.70;0.70;;;17.10;99.90;;;;;;5156409;27;20069;-62
2023/09/18 06:40:25;;;;;;;1.48;1.38;;;17.60;99.90;;;;;;5156714;27;20085;-62
2023/09/18 06:42:52;;;;;;;2.47;1.00;;;17.60;99.90;;;;;;5156737;27;20099;-62
2023/09/18 06:45:18;;;;;;;2.38;1.08;;;17.40;99.90;;;;;;5155678;27;20062;-64
2023/09/18 06:47:43;;;;;;;0.80;0.80;;;18.20;99.90;;;;;;5156740;27;20042;-62
2023/09/18 06:50:11;;;;;;;0.60;0.40;;;18.40;99.90;;;;;;5156569;27;20043;-62
2023/09/18 06:52:37;;;;;;;2.17;1.10;;;17.70;99.90;;;;;;5156305;27;20121;-62
2023/09/18 06:55:03;;;;;;;2.13;1.92;;;18.60;99.90;;;;;;5156620;27;20146;-62
2023/09/18 06:57:28;;;;;;;1.08;0.98;;;18.50;99.90;;;;;;5156632;27;20051;-62
2023/09/18 06:59:54;;;;;;;2.72;1.05;;;17.40;99.90;;;;;;5148655;27;20043;-61
2023/09/18 07:02:20;;;;;;;4.80;1.00;;;17.70;99.90;;;;;;5154794;27;20506;-63
2023/09/18 07:04:46;;;;;;;1.33;1.23;;;18.30;99.90;;;;;;5155978;27;20087;-61
2023/09/18 07:07:13;;;;;;;0.50;0.50;;;17.70;99.90;;;;;;5155025;27;20081;-62
2023/09/18 07:09:40;;;;;;;0.55;0.55;;;17.50;99.90;;;;;;5155911;27;20119;-62
2023/09/18 07:12:06;;;;;;;1.08;0.82;;;17.60;99.90;;;;;;5155828;27;20068;-62
2023/09/18 07:14:31;;;;;;;0.70;0.68;;;18.60;99.90;;;;;;5154887;27;20079;-62
2023/09/18 07:16:57;;;;;;;1.08;1.00;;;18.90;99.90;;;;;;5155480;27;20042;-61
2023/09/18 07:19:23;;;;;;;1.58;1.48;;;18.10;99.90;;;;;;5155615;27;20042;-62
2023/09/18 07:21:49;;;;;;;0.50;0.50;;;18.60;99.90;;;;;;5155104;27;20054;-64
2023/09/18 07:24:18;;;;;;;1.63;1.45;;;17.80;99.90;;;;;;5155334;27;20486;-61
2023/09/18 07:26:48;;;;;;;3.72;1.15;;;18.90;99.90;;;;;;5155505;27;20055;-62
2023/09/18 07:29:16;;;;;;;2.03;1.83;;;18.90;99.90;;;;;;5154653;27;20107;-63
2023/09/18 07:31:43;;;;;;;1.08;1.08;;;19.00;99.90;;;;;;5154803;27;20435;-61
2023/09/18 07:34:09;;;;;;;3.30;1.40;;;19.10;99.90;;;;;;5155016;27;20042;-61
2023/09/18 07:36:35;;;;;;;1.35;1.05;;;18.70;99.90;;;;;;5154735;27;20122;-61
2023/09/18 07:39:01;;;;;;;1.85;1.70;;;18.00;99.90;;;;;;5155386;27;20447;-61
2023/09/18 07:41:26;;;;;;;0.75;0.68;;;17.80;99.90;;;;;;5155061;27;20138;-60
2023/09/18 07:43:52;;;;;;;2.00;1.65;;;18.90;99.90;;;;;;5154759;27;20091;-61
2023/09/18 07:46:19;;;;;;;0.98;0.85;;;19.20;99.90;;;;;;5154305;27;20051;-65
2023/09/18 07:48:44;;;;;;;0.63;0.63;;;17.80;99.90;;;;;;5134438;27;20108;-62
2023/09/18 07:51:13;;;;;;;0.43;0.43;;;17.50;99.90;;;;;;5151260;27;20499;-63
2023/09/18 07:53:39;;;;;;;6.88;1.20;;;18.90;99.90;;;;;;5154715;27;20054;-65
2023/09/18 07:56:05;;;;;;;5.50;1.38;;;18.30;99.90;;;;;;5155106;27;20043;-62
2023/09/18 07:58:33;;;;;;;1.65;0.82;;;17.60;99.90;;;;;;5154824;27;20493;-61
2023/09/18 08:00:59;;;;;;;0.35;0.35;;;18.40;99.90;;;;;;5153551;27;20126;-61
2023/09/18 08:03:25;;;;;;;1.13;0.98;;;18.60;99.90;;;;;;5154184;27;20054;-60
2023/09/18 08:05:52;;;;;;;0.40;0.40;;;18.40;99.90;;;;;;5154568;27;20070;-60
2023/09/18 08:08:20;;;;;;;1.25;0.70;;;18.40;99.90;;;;;;5154159;27;20125;-61
2023/09/18 08:10:46;;;;;;;0.30;0.30;;;18.40;99.90;;;;;;5154707;27;20191;-60
2023/09/18 08:13:13;;;;;;;0.63;0.38;;;17.70;99.90;;;;;;5154493;27;20395;-62
2023/09/18 08:15:39;;;;;;;1.38;0.85;;;17.70;99.90;;;;;;5153010;27;20406;-63
2023/09/18 08:18:05;;;;;;;1.42;1.33;;;17.90;99.90;;;;;;5154045;27;20047;-61
2023/09/18 08:20:30;;;;;;;0.43;0.43;;;19.40;99.90;;;;;;5153745;27;20039;-62
2023/09/18 08:22:56;;;;;;;1.85;1.35;;;19.20;99.90;;;;;;5145186;27;20046;-62
2023/09/18 08:25:22;;;;;;;2.97;0.52;;;19.20;99.90;;;;;;5142229;27;20046;-66
2023/09/18 08:27:48;;;;;;;0.40;0.40;;;19.00;99.90;;;;;;5149318;27;20047;-62
2023/09/18 08:30:15;;;;;;;0.40;0.40;;;18.30;99.90;;;;;;5153452;27;20050;-64
2023/09/18 08:32:42;;;;;;;0.30;0.30;;;18.70;99.90;;;;;;5154133;27;20066;-61
2023/09/18 08:35:08;;;;;;;0.47;0.47;;;17.80;99.90;;;;;;5154105;27;20045;-60
2023/09/18 08:37:34;;;;;;;0.30;0.30;;;18.00;99.90;;;;;;5152617;27;20133;-63
2023/09/18 08:40:00;;;;;;;0.15;0.15;;;18.40;99.90;;;;;;5154415;27;20126;-62
2023/09/18 08:42:31;;;;;;;0.20;0.20;;;19.30;99.90;;;;;;5154441;27;20038;-62
2023/09/18 08:44:59;;;;;;;0.63;0.63;;;18.20;99.90;;;;;;5153345;27;20517;-61
2023/09/18 08:47:27;;;;;;;1.27;0.95;;;17.90;99.90;;;;;;5153466;27;20039;-62
2023/09/18 08:49:55;;;;;;;0.30;0.30;;;18.60;99.90;;;;;;5154317;27;20043;-61
2023/09/18 08:52:22;;;;;;;0.57;0.52;;;18.40;99.90;;;;;;5153658;27;20078;-61
2023/09/18 08:54:50;;;;;;;1.38;0.82;;;17.80;99.90;;;;;;5154007;27;20051;-62
2023/09/18 08:57:16;;;;;;;0.63;0.60;;;18.10;99.90;;;;;;5153974;27;20065;-62
2023/09/18 08:59:43;;;;;;;0.57;0.57;;;18.50;99.90;;;;;;5153018;27;20049;-62
2023/09/18 09:02:11;;;;;;;0.55;0.55;;;18.50;99.90;;;;;;5153790;27;20046;-61
2023/09/18 09:04:38;;;;;;;0.40;0.40;;;18.50;99.90;;;;;;5153604;27;20118;-61
2023/09/18 09:07:04;;;;;;;0.32;0.32;;;19.00;99.90;;;;;;5152844;27;20125;-62
2023/09/18 09:09:30;;;;;;;1.13;0.82;;;19.50;99.90;;;;;;5153396;27;20047;-62
2023/09/18 09:11:56;;;;;;;0.75;0.75;;;18.20;99.90;;;;;;5153118;27;20054;-62
2023/09/18 09:14:27;;;;;;;0.63;0.63;;;18.90;99.90;;;;;;5152552;27;20077;-61
2023/09/18 09:16:54;;;;;;;1.63;1.02;;;19.60;99.90;;;;;;5153130;27;20049;-62
2023/09/18 09:19:38;;;;;;;0.60;0.60;;;18.80;99.90;;;;;;5153081;27;20100;-63
2023/09/18 09:22:05;;;;;;;0.60;0.50;;;18.90;99.90;;;;;;5152426;27;20490;-62
2023/09/18 09:24:42;;;;;;;0.45;0.45;;;18.10;99.90;;;;;;5153125;27;20046;-64
2023/09/18 09:27:09;;;;;;;0.82;0.82;;;19.30;99.90;;;;;;5152686;27;20126;-62
2023/09/18 09:29:35;;;;;;;1.45;0.85;;;19.60;99.90;;;;;;5152198;27;20054;-63
2023/09/18 09:32:18;;;;;;;1.80;0.60;;;19.70;99.90;;;;;;5151963;27;20046;-62
2023/09/18 09:34:46;;;;;;;1.25;1.25;;;18.80;99.90;;;;;;5150316;27;20415;-62
2023/09/18 09:37:11;;;;;;;2.08;1.17;;;18.90;99.90;;;;;;5151646;27;20113;-62
2023/09/18 09:39:56;;;;;;;0.60;0.60;;;19.20;99.90;;;;;;5152345;27;20141;-62
2023/09/18 09:42:24;;;;;;;0.68;0.68;;;20.00;99.90;;;;;;5132953;27;20117;-63
2023/09/18 09:45:03;;;;;;;3.90;1.70;;;19.80;99.90;;;;;;5152512;27;20051;-63
2023/09/18 09:47:33;;;;;;;1.75;1.17;;;19.40;99.90;;;;;;5130930;27;20129;-62
2023/09/18 09:50:13;;;;;;;1.88;1.75;;;19.10;99.90;;;;;;5131629;27;20808;-62
2023/09/18 09:52:57;;;;;;;0.60;0.60;;;18.70;99.90;;;;;;5140906;27;20034;-63
2023/09/18 09:55:27;;;;;;;1.33;1.23;;;19.20;99.90;;;;;;5152728;27;20054;-63
2023/09/18 09:57:59;;;;;;;1.63;1.42;;;18.60;99.90;;;;;;5151717;27;20046;-62
2023/09/18 10:00:31;;;;;;;1.65;1.30;;;19.80;99.90;;;;;;5152027;27;20126;-63
2023/09/18 10:03:03;;;;;;;0.90;0.70;;;20.30;99.90;;;;;;5151875;27;20102;-62
2023/09/18 10:05:35;;;;;;;0.90;0.90;;;19.10;99.90;;;;;;5151903;27;20080;-63
2023/09/18 10:08:22;;;;;;;0.93;0.88;;;20.20;99.90;;;;;;5152772;27;20046;-63
2023/09/18 10:10:52;;;;;;;;;;;20.30;99.90;;;;;;5149302;27;20043;-62
2023/09/18 10:13:37;;;;;;;1.00;0.80;;;20.30;99.90;;;;;;5150795;27;19927;-62
2023/09/18 10:16:06;;;;;;;0.70;0.70;;;20.40;99.90;;;;;;5150571;27;20046;-64
2023/09/18 10:18:38;;;;;;;0.88;0.80;;;20.30;99.90;;;;;;5147004;27;20283;-61
2023/09/18 10:21:20;;;;;;;10.77;4.15;;;20.20;99.90;;;;;;5152294;27;20086;-62
2023/09/18 10:23:59;;;;;;;1.90;1.13;;;19.60;99.90;;;;;;5152037;27;20043;-63
2023/09/18 10:26:29;;;;;;;1.27;1.23;;;20.50;99.90;;;;;;5152165;27;20046;-61
2023/09/18 10:28:59;;;;;;;1.33;1.23;;;20.10;99.90;;;;;;5152466;27;20042;-61
2023/09/18 10:31:28;;;;;;;1.25;0.60;;;21.10;99.90;;;;;;5130636;27;20391;-62
2023/09/18 10:33:57;;;;;;;1.45;1.35;;;20.30;99.90;;;;;;5151216;27;20049;-62
2023/09/18 10:36:25;;;;;;;1.13;1.05;;;21.20;99.90;;;;;;5152197;27;20118;-62
2023/09/18 10:38:52;;;;;;;0.95;0.90;;;21.20;99.90;;;;;;5152656;27;20046;-62
2023/09/18 10:41:21;;;;;;;1.25;1.15;;;21.20;99.90;;;;;;5152548;27;20055;-61
2023/09/18 10:43:49;;;;;;;2.05;0.93;;;21.30;99.90;;;;;;5152470;27;20125;-62
2023/09/18 10:46:15;;;;;;;0.57;0.57;;;21.30;99.90;;;;;;5152220;27;20093;-61
2023/09/18 10:48:43;;;;;;;1.05;0.95;;;21.20;99.90;;;;;;5152381;27;20047;-63
2023/09/18 10:51:10;;;;;;;1.70;1.25;;;21.20;99.90;;;;;;5152138;27;20092;-62
2023/09/18 10:53:36;;;;;;;0.65;0.65;;;20.50;99.90;;;;;;5152470;27;20763;-62
2023/09/18 10:56:04;;;;;;;2.67;2.15;;;19.90;99.90;;;;;;5152133;27;20087;-62
2023/09/18 10:58:30;;;;;;;1.48;1.38;;;20.80;99.90;;;;;;5152018;27;20406;-63
2023/09/18 11:00:59;;;;;;;1.90;1.45;;;20.70;99.90;;;;;;5151864;27;20624;-62
2023/09/18 11:03:25;;;;;;;0.57;0.57;;;20.90;99.90;;;;;;5151790;27;20051;-62
2023/09/18 11:06:04;;;;;;;1.63;1.52;;;21.30;99.90;;;;;;5152269;27;20057;-63
2023/09/18 11:08:33;;;;;;;1.23;1.02;;;21.20;99.90;;;;;;5151972;27;20182;-62
2023/09/18 11:11:14;;;;;;;1.55;1.08;;;21.10;99.90;;;;;;5154494;27;20400;-62
2023/09/18 11:13:41;;;;;;;4.97;1.52;;;21.70;99.90;;;;;;5135511;27;20120;-62
2023/09/18 11:16:26;;;;;;;1.25;1.13;;;21.80;99.90;;;;;;5127235;27;20375;-63
2023/09/18 11:18:53;;;;;;;1.83;1.15;;;22.00;99.90;;;;;;5155165;27;20051;-62
2023/09/18 11:21:28;;;;;;;0.80;0.80;;;21.50;99.90;;;;;;5155044;27;20050;-62
2023/09/18 11:24:01;;;;;;;1.55;0.60;;;21.90;99.90;;;;;;5155755;27;20043;-62
2023/09/18 11:26:31;;;;;;;0.75;0.75;;;22.00;99.90;;;;;;5155611;27;20047;-62
2023/09/18 11:29:09;;;;;;;0.88;0.77;;;21.80;99.90;;;;;;5155445;27;20102;-62
2023/09/18 11:31:50;;;;;;;0.60;0.60;;;21.50;99.90;;;;;;5155392;27;20045;-62
2023/09/18 11:34:37;;;;;;;0.93;0.82;;;21.30;99.90;;;;;;5137116;27;20086;-63
2023/09/18 11:37:20;;;;;;;1.52;1.30;;;21.60;99.90;;;;;;5155516;27;20042;-62
2023/09/18 11:39:46;;;;;;;1.17;1.02;;;21.50;99.90;;;;;;5155375;27;20047;-62
2023/09/18 11:42:26;;;;;;;0.75;0.75;;;21.30;99.90;;;;;;5155284;27;20095;-63
2023/09/18 11:44:53;;;;;;;0.90;0.70;;;21.20;99.90;;;;;;5155291;27;20398;-62
2023/09/18 11:47:24;;;;;;;1.02;0.88;;;21.20;99.90;;;;;;5155259;27;20122;-62
2023/09/18 11:49:56;;;;;;;0.50;0.50;;;21.70;99.90;;;;;;5155280;27;20051;-64
2023/09/18 11:52:29;;;;;;;0.40;0.40;;;21.70;99.90;;;;;;5155142;27;20047;-63
2023/09/18 11:54:58;;;;;;;0.73;0.73;;;22.00;99.90;;;;;;5155090;27;20387;-63
2023/09/18 11:57:24;;;;;;;1.73;0.95;;;22.20;99.90;;;;;;5154980;27;20043;-62
2023/09/18 11:59:51;;;;;;;0.38;0.38;;;22.20;99.90;;;;;;5155171;27;20528;-62
2023/09/18 12:02:27;;;;;;;0.85;0.70;;;22.50;99.90;;;;;;5155484;27;20517;-62
2023/09/18 12:04:56;;;;;;;0.38;0.38;;;22.50;99.90;;;;;;5155264;27;20134;-61
2023/09/18 12:07:24;;;;;;;0.93;0.93;;;22.50;99.90;;;;;;5154735;27;20501;-62
2023/09/18 12:09:50;;;;;;;0.57;0.57;;;21.90;99.90;;;;;;5154585;27;20126;-62
2023/09/18 12:12:17;;;;;;;0.43;0.43;;;21.60;99.90;;;;;;5154627;27;20138;-62
2023/09/18 12:14:44;;;;;;;0.50;0.50;;;21.10;99.90;;;;;;5154749;27;20051;-62
2023/09/18 12:17:15;;;;;;;0.43;0.43;;;21.30;99.90;;;;;;5154284;27;20486;-62
2023/09/18 12:19:53;;;;;;;0.40;0.40;;;21.90;99.90;;;;;;5154454;27;20494;-62
2023/09/18 12:22:30;;;;;;;0.80;0.80;;;21.80;99.90;;;;;;5154377;27;20136;-61
2023/09/18 12:25:13;;;;;;;0.63;0.63;;;22.70;99.90;;;;;;5154410;27;20123;-61
2023/09/18 12:27:43;;;;;;;1.33;0.85;;;22.70;99.90;;;;;;5154393;27;20047;-64
2023/09/18 12:30:09;;;;;;;0.40;0.40;;;22.60;99.90;;;;;;5154189;27;20039;-61
2023/09/18 12:32:39;;;;;;;0.45;0.45;;;22.60;99.90;;;;;;5154437;27;20045;-62
2023/09/18 12:35:09;;;;;;;0.85;0.40;;;22.70;99.90;;;;;;5154373;27;20039;-61
2023/09/18 12:37:38;;;;;;;0.70;0.70;;;22.60;99.90;;;;;;5154448;27;20444;-62
2023/09/18 12:40:10;;;;;;;1.30;0.57;;;22.80;99.90;;;;;;5154172;27;20456;-62
2023/09/18 12:42:40;;;;;;;1.58;0.85;;;23.10;99.90;;;;;;5154049;27;20045;-62
2023/09/18 12:45:07;;;;;;;0.55;0.55;;;22.90;99.90;;;;;;5154094;27;20494;-62
2023/09/18 12:47:33;;;;;;;0.20;0.20;;;23.10;99.90;;;;;;5154048;27;20063;-62
2023/09/18 12:50:11;;;;;;;0.60;0.57;;;23.00;99.90;;;;;;5135262;27;20047;-62
2023/09/18 12:52:37;;;;;;;0.40;0.40;;;23.40;99.90;;;;;;5153867;27;20054;-61
2023/09/18 12:55:05;;;;;;;0.30;0.30;;;23.50;99.90;;;;;;5153825;27;20138;-61